ロサンゼルス国際空港の過去48時間の天気

ロサンゼルス国際空港 (Los Angeles, Los Angeles International Airport)

現在時刻: 9/25 14:38 PDT (9/25 21:38 UTC) 以下の時間は現地時間です。

過去48時間のMETAR気象情報
時間 風向 風速(m/s) 視程 気温(℃) 湿度(%) 気圧(hPa) 天気現象
25 13:53 西 7 10km以上 25 64 1014.3
25 12:53 南西 5 10km以上 24.4 67 1015
KLAX 252053Z 26013KT 10SM FEW110 FEW180 SCT300 25/18 A2996 RMK AO2 SLP143 TCU E CB SE T02500178 58018
KLAX 251953Z 23009KT 10SM FEW110 FEW180 SCT300 24/18 A2998 RMK AO2 SLP150 TCU E CB SE T02440178